Terminal Aerodrome Forecast
Issued by NWS

Home | Current Version | Previous Version | Text Only | Print | Product List | Glossary On
Versions: 1 2 3 4 5 6 7 8 9 10 11 12
000
FTUS42 TJSJ 301739
TAFISX
TAF
TISX 301739Z 3018/3118 11015G26KT P6SM FEW025 SCT050
     FM302230 08011KT P6SM VCSH SCT025 SCT040
     FM311330 12012G22KT P6SM -RA SCT025 BKN070=

USA.gov is the U.S. government's official web portal to all federal, state and local government web resources and services.